Time;durP1;ratioP1;P1;durP2;ratioP2;P2;SDS_P1;SDS_P2;PMS_P1;PMS_P2;Temp;Humidity;BMP_temperature;BMP_pressure;BME280_temperature;BME280_humidity;BME280_pressure;Samples;Min_cycle;Max_cycle;Signal;HPM_P1;HPM_P2
2022/06/04 00:01:12;;;;;;;6.70;5.72;;;;;;;;;;5090071;28;20054;-86
2022/06/04 00:03:37;;;;;;;7.80;6.03;;;;;;;;;;5089977;28;20063;-87
2022/06/04 00:06:03;;;;;;;10.40;6.53;;;;;;;;;;5087646;28;20460;-88
2022/06/04 00:08:30;;;;;;;6.75;5.85;;;;;;;;;;5090960;28;20020;-87
2022/06/04 00:16:28;;;;;;;9.02;6.47;;;;;;;;;;5090136;28;20046;-84
2022/06/04 00:18:53;;;;;;;9.88;6.72;;;;;;;;;;5089559;28;20375;-86
2022/06/04 00:21:19;;;;;;;7.75;6.35;;;;;;;;;;5091700;28;20107;-84
2022/06/04 00:23:44;;;;;;;9.55;6.50;;;;;;;;;;5088543;28;20552;-88
2022/06/04 00:26:13;;;;;;;7.20;6.47;;;;;;;;;;5091140;28;20483;-87
2022/06/04 00:28:39;;;;;;;8.27;6.60;;;;;;;;;;5087828;28;20032;-85
2022/06/04 00:31:04;;;;;;;8.48;6.28;;;;;;;;;;5089095;28;20404;-86
2022/06/04 00:33:30;;;;;;;8.73;6.32;;;;;;;;;;5091604;28;20486;-84
2022/06/04 00:35:57;;;;;;;9.07;5.90;;;;;;;;;;5091385;28;20423;-85
2022/06/04 00:38:26;;;;;;;9.63;6.15;;;;;;;;;;5087744;28;20456;-84
2022/06/04 00:41:03;;;;;;;8.73;6.50;;;;;;;;;;5091784;28;20024;-86
2022/06/04 00:43:29;;;;;;;7.78;6.60;;;;;;;;;;5089842;28;20031;-85
2022/06/04 00:46:28;;;;;;;13.18;6.07;;;;;;;;;;5091349;28;20032;-86
2022/06/04 00:48:54;;;;;;;8.45;6.57;;;;;;;;;;5088404;28;20487;-86
2022/06/04 00:51:20;;;;;;;8.65;6.22;;;;;;;;;;5092055;28;20090;-85
2022/06/04 00:53:45;;;;;;;10.05;6.07;;;;;;;;;;5091878;28;20028;-85
2022/06/04 00:56:40;;;;;;;7.88;5.70;;;;;;;;;;5092659;28;20016;-88
2022/06/04 00:59:15;;;;;;;8.35;6.22;;;;;;;;;;5088413;28;20097;-85
2022/06/04 01:01:55;;;;;;;9.02;6.68;;;;;;;;;;5091035;28;20036;-86
2022/06/04 01:07:36;;;;;;;9.18;6.90;;;;;;;;;;5091295;28;20039;-84
2022/06/04 01:10:14;;;;;;;8.80;6.35;;;;;;;;;;5090425;28;20363;-86
2022/06/04 01:13:04;;;;;;;7.65;6.40;;;;;;;;;;5088816;28;20073;-85
2022/06/04 01:15:39;;;;;;;7.38;6.32;;;;;;;;;;5089519;28;20515;-83
2022/06/04 01:18:07;;;;;;;8.38;6.38;;;;;;;;;;5088315;28;20073;-83
2022/06/04 01:21:08;;;;;;;7.60;6.80;;;;;;;;;;5090323;28;20035;-83
2022/06/04 01:23:55;;;;;;;8.70;6.32;;;;;;;;;;5078365;28;20492;-86
2022/06/04 01:26:39;;;;;;;9.07;6.82;;;;;;;;;;5104872;28;20028;-86
2022/06/04 01:29:14;;;;;;;9.18;7.20;;;;;;;;;;5090281;28;20079;-84
2022/06/04 01:31:56;;;;;;;7.40;6.25;;;;;;;;;;5089531;28;20074;-86
2022/06/04 01:34:29;;;;;;;8.23;5.97;;;;;;;;;;5089825;28;20055;-84
2022/06/04 01:37:19;;;;;;;9.18;6.53;;;;;;;;;;5089601;28;20491;-86
2022/06/04 01:42:33;;;;;;;8.98;7.50;;;;;;;;;;5094608;28;21132;-85
2022/06/04 01:45:04;;;;;;;8.82;7.57;;;;;;;;;;5093318;28;20031;-84
2022/06/04 01:47:31;;;;;;;11.02;8.65;;;;;;;;;;5094304;28;20077;-85
2022/06/04 01:49:59;;;;;;;8.88;7.13;;;;;;;;;;5094360;28;20050;-84
2022/06/04 01:52:36;;;;;;;9.70;7.35;;;;;;;;;;5092007;28;20107;-85
2022/06/04 01:55:14;;;;;;;13.20;7.82;;;;;;;;;;5093216;28;20516;-86
2022/06/04 01:57:48;;;;;;;12.55;8.43;;;;;;;;;;5092301;28;20838;-83
2022/06/04 02:00:19;;;;;;;17.23;9.25;;;;;;;;;;5092181;28;20023;-83
2022/06/04 02:02:53;;;;;;;10.90;8.02;;;;;;;;;;5092926;28;20035;-83
2022/06/04 02:05:27;;;;;;;9.73;8.38;;;;;;;;;;5091886;28;20047;-84
2022/06/04 02:07:55;;;;;;;12.15;9.80;;;;;;;;;;5089636;28;20053;-84
2022/06/04 02:10:42;;;;;;;15.18;9.63;;;;;;;;;;5093675;28;20016;-84
2022/06/04 02:13:10;;;;;;;15.02;10.52;;;;;;;;;;5094316;28;20503;-84
2022/06/04 02:15:42;;;;;;;12.32;10.45;;;;;;;;;;5093915;28;20048;-85
2022/06/04 02:18:10;;;;;;;13.70;9.10;;;;;;;;;;5092973;28;20103;-85
2022/06/04 02:20:36;;;;;;;12.70;8.27;;;;;;;;;;5093435;28;20112;-83
2022/06/04 02:23:02;;;;;;;10.60;8.23;;;;;;;;;;5093672;28;20111;-84
2022/06/04 02:25:31;;;;;;;11.18;8.85;;;;;;;;;;5089651;28;20028;-82
2022/06/04 02:27:58;;;;;;;9.82;8.63;;;;;;;;;;5093467;28;20856;-82
2022/06/04 02:30:35;;;;;;;11.63;8.75;;;;;;;;;;5091009;28;20055;-84
2022/06/04 02:33:10;;;;;;;14.00;8.85;;;;;;;;;;5092045;28;20106;-85
2022/06/04 02:35:52;;;;;;;12.60;8.60;;;;;;;;;;5091210;28;20032;-85
2022/06/04 02:38:17;;;;;;;10.68;7.15;;;;;;;;;;5092560;28;20031;-84
2022/06/04 02:41:05;;;;;;;9.68;6.50;;;;;;;;;;5092119;28;20020;-84
2022/06/04 02:43:39;;;;;;;9.57;6.22;;;;;;;;;;5091206;28;20036;-86
2022/06/04 02:46:13;;;;;;;8.52;6.78;;;;;;;;;;5092625;28;20475;-84
2022/06/04 02:48:45;;;;;;;7.45;5.50;;;;;;;;;;5091933;28;20153;-84
2022/06/04 02:51:15;;;;;;;11.15;6.25;;;;;;;;;;5092492;28;20020;-83
2022/06/04 02:53:42;;;;;;;8.38;5.85;;;;;;;;;;5090306;28;20032;-85
2022/06/04 02:56:22;;;;;;;10.35;6.22;;;;;;;;;;5092518;28;20493;-84
2022/06/04 02:58:51;;;;;;;8.02;5.65;;;;;;;;;;5090194;28;20154;-84
2022/06/04 03:01:18;;;;;;;7.85;5.63;;;;;;;;;;5088689;28;20491;-86
2022/06/04 03:03:44;;;;;;;6.78;5.40;;;;;;;;;;5084654;28;20370;-85
2022/06/04 03:06:22;;;;;;;6.55;5.30;;;;;;;;;;5084902;28;20107;-83
2022/06/04 03:08:47;;;;;;;6.05;5.45;;;;;;;;;;5083356;28;20016;-84
2022/06/04 03:11:13;;;;;;;6.70;5.63;;;;;;;;;;5086766;28;20365;-84
2022/06/04 03:13:41;;;;;;;7.53;5.80;;;;;;;;;;5089480;28;20548;-82
2022/06/04 03:16:06;;;;;;;8.27;6.07;;;;;;;;;;5088363;28;20024;-84
2022/06/04 03:18:31;;;;;;;10.20;5.82;;;;;;;;;;5091678;28;20097;-83
2022/06/04 03:20:57;;;;;;;6.40;5.40;;;;;;;;;;5088754;28;20012;-85
2022/06/04 03:23:23;;;;;;;6.97;5.78;;;;;;;;;;5091725;28;20031;-83
2022/06/04 03:25:48;;;;;;;7.03;5.53;;;;;;;;;;5085539;28;20031;-84
2022/06/04 03:28:14;;;;;;;5.93;5.32;;;;;;;;;;5088885;28;20036;-85
2022/06/04 03:30:39;;;;;;;6.95;5.28;;;;;;;;;;5092146;28;20043;-84
2022/06/04 03:33:05;;;;;;;7.40;5.05;;;;;;;;;;5092320;28;20058;-85
2022/06/04 03:35:31;;;;;;;7.60;5.13;;;;;;;;;;5092244;28;20076;-86
2022/06/04 03:37:57;;;;;;;5.57;4.93;;;;;;;;;;5092898;28;20035;-84
2022/06/04 03:40:22;;;;;;;7.47;5.38;;;;;;;;;;5090443;28;20047;-84
2022/06/04 03:42:48;;;;;;;9.07;5.47;;;;;;;;;;5090952;28;20024;-83
2022/06/04 03:45:15;;;;;;;6.82;5.97;;;;;;;;;;5086125;28;20415;-85
2022/06/04 03:47:40;;;;;;;7.38;5.65;;;;;;;;;;5091982;28;20028;-84
2022/06/04 03:50:14;;;;;;;11.00;6.47;;;;;;;;;;5091911;28;20027;-83
2022/06/04 03:52:40;;;;;;;9.70;5.95;;;;;;;;;;5092049;28;20047;-84
2022/06/04 03:55:07;;;;;;;8.65;6.18;;;;;;;;;;5091732;28;20153;-85
2022/06/04 03:57:38;;;;;;;9.48;6.80;;;;;;;;;;5092419;28;20513;-86
2022/06/04 04:00:09;;;;;;;7.75;6.30;;;;;;;;;;5084707;28;20077;-84
2022/06/04 04:02:43;;;;;;;8.23;6.40;;;;;;;;;;5090540;28;20036;-85
2022/06/04 04:05:12;;;;;;;8.70;6.50;;;;;;;;;;5092258;28;20023;-86
2022/06/04 04:07:37;;;;;;;11.35;7.43;;;;;;;;;;5092207;28;20046;-84
2022/06/04 04:10:04;;;;;;;13.35;7.43;;;;;;;;;;5091619;28;20028;-86
2022/06/04 04:12:30;;;;;;;8.70;7.78;;;;;;;;;;5091959;28;20427;-84
2022/06/04 04:14:55;;;;;;;10.68;8.07;;;;;;;;;;5091684;28;20024;-84
2022/06/04 04:17:22;;;;;;;12.15;7.53;;;;;;;;;;5089447;28;20028;-86
2022/06/04 04:19:48;;;;;;;12.50;8.25;;;;;;;;;;5087497;28;20757;-86
2022/06/04 04:22:13;;;;;;;11.93;8.55;;;;;;;;;;5091215;28;20012;-86
2022/06/04 04:24:39;;;;;;;12.18;8.70;;;;;;;;;;5091660;28;20028;-85
2022/06/04 04:27:04;;;;;;;10.30;8.63;;;;;;;;;;5090382;28;20036;-85
2022/06/04 04:29:30;;;;;;;14.45;9.02;;;;;;;;;;5087636;28;20044;-86
2022/06/04 04:31:56;;;;;;;10.52;8.63;;;;;;;;;;5087236;28;20047;-85
2022/06/04 04:34:22;;;;;;;11.15;8.40;;;;;;;;;;5089442;28;20395;-84
2022/06/04 04:36:47;;;;;;;15.40;9.75;;;;;;;;;;5086094;28;20031;-88
2022/06/04 04:39:13;;;;;;;12.77;9.80;;;;;;;;;;5091434;28;20016;-86
2022/06/04 04:41:38;;;;;;;12.23;9.00;;;;;;;;;;5089882;28;20020;-86
2022/06/04 04:44:04;;;;;;;10.43;8.43;;;;;;;;;;5087937;28;20055;-88
2022/06/04 04:46:29;;;;;;;12.75;9.13;;;;;;;;;;5088100;28;20066;-87
2022/06/04 04:48:55;;;;;;;11.57;10.00;;;;;;;;;;5091141;28;20425;-87
2022/06/04 04:51:24;;;;;;;12.40;10.18;;;;;;;;;;5090145;28;20448;-85
2022/06/04 04:53:51;;;;;;;14.23;10.27;;;;;;;;;;5086045;28;20488;-88
2022/06/04 04:56:18;;;;;;;12.85;10.48;;;;;;;;;;5091578;28;20151;-86
2022/06/04 04:58:44;;;;;;;16.88;11.65;;;;;;;;;;5088347;28;20039;-88
2022/06/04 05:01:20;;;;;;;16.23;11.18;;;;;;;;;;5085385;28;20098;-86
2022/06/04 05:03:49;;;;;;;18.05;12.35;;;;;;;;;;5084634;28;20047;-84
2022/06/04 05:06:16;;;;;;;16.53;12.10;;;;;;;;;;5088936;28;20028;-86
2022/06/04 05:08:42;;;;;;;19.70;12.07;;;;;;;;;;5089902;28;20099;-85
2022/06/04 05:11:10;;;;;;;18.00;13.15;;;;;;;;;;5090126;28;20162;-86
2022/06/04 05:13:37;;;;;;;16.88;11.52;;;;;;;;;;5086968;28;20056;-85
2022/06/04 05:16:03;;;;;;;15.80;12.48;;;;;;;;;;5091219;28;20154;-84
2022/06/04 05:18:28;;;;;;;15.60;11.70;;;;;;;;;;5084229;28;20028;-86
2022/06/04 05:20:55;;;;;;;15.98;12.13;;;;;;;;;;5094315;28;20027;-83
2022/06/04 05:23:20;;;;;;;17.50;12.60;;;;;;;;;;5094983;28;20024;-85
2022/06/04 05:25:46;;;;;;;15.73;12.38;;;;;;;;;;5091764;28;20042;-85
2022/06/04 05:28:14;;;;;;;16.70;11.75;;;;;;;;;;5089637;28;20027;-84
2022/06/04 05:30:39;;;;;;;15.82;12.20;;;;;;;;;;5094643;28;20121;-83
2022/06/04 05:33:07;;;;;;;14.65;11.95;;;;;;;;;;5094872;28;20059;-85
2022/06/04 05:35:32;;;;;;;17.73;14.32;;;;;;;;;;5093496;28;20016;-86
2022/06/04 05:37:58;;;;;;;18.38;12.27;;;;;;;;;;5094849;28;20032;-84
2022/06/04 05:40:23;;;;;;;14.05;12.15;;;;;;;;;;5094655;28;20420;-85
2022/06/04 05:42:49;;;;;;;15.95;12.93;;;;;;;;;;5094307;28;20047;-84
2022/06/04 05:45:14;;;;;;;18.13;12.98;;;;;;;;;;5094525;28;20483;-84
2022/06/04 05:47:40;;;;;;;14.25;12.23;;;;;;;;;;5094349;28;20039;-84
2022/06/04 05:50:06;;;;;;;18.23;13.10;;;;;;;;;;5092921;28;20031;-85
2022/06/04 05:52:31;;;;;;;15.45;12.38;;;;;;;;;;5092692;28;20028;-86
2022/06/04 05:54:57;;;;;;;20.60;17.58;;;;;;;;;;5088323;28;20043;-86
2022/06/04 05:57:22;;;;;;;30.33;25.23;;;;;;;;;;5084521;28;20066;-84
2022/06/04 05:59:49;;;;;;;18.50;13.10;;;;;;;;;;5092266;28;20046;-86
2022/06/04 06:02:14;;;;;;;15.55;13.75;;;;;;;;;;5093860;28;20098;-86
2022/06/04 06:04:40;;;;;;;21.88;15.07;;;;;;;;;;5087879;28;20524;-85
2022/06/04 06:07:05;;;;;;;19.00;13.63;;;;;;;;;;5084241;28;20484;-84
2022/06/04 06:09:31;;;;;;;15.48;13.13;;;;;;;;;;5091031;28;20043;-85
2022/06/04 06:11:56;;;;;;;16.90;13.38;;;;;;;;;;5083701;28;20021;-86
2022/06/04 06:14:23;;;;;;;16.40;12.65;;;;;;;;;;5092362;28;20028;-88
2022/06/04 06:16:50;;;;;;;22.58;13.27;;;;;;;;;;5088505;28;20036;-84
2022/06/04 06:19:18;;;;;;;18.23;13.27;;;;;;;;;;5093794;28;20024;-86
2022/06/04 06:21:44;;;;;;;19.52;13.95;;;;;;;;;;5090201;28;20032;-85
2022/06/04 06:24:11;;;;;;;15.85;12.88;;;;;;;;;;5091883;28;20032;-85
2022/06/04 06:26:48;;;;;;;16.70;13.07;;;;;;;;;;5091863;28;20329;-85
2022/06/04 06:29:15;;;;;;;17.25;12.65;;;;;;;;;;5091840;28;20086;-84
2022/06/04 06:31:41;;;;;;;17.60;12.90;;;;;;;;;;5093527;28;20028;-86
2022/06/04 06:34:08;;;;;;;19.90;13.27;;;;;;;;;;5086422;28;20472;-84
2022/06/04 06:36:33;;;;;;;18.17;13.35;;;;;;;;;;5091806;28;20506;-86
2022/06/04 06:38:58;;;;;;;16.13;12.77;;;;;;;;;;5090873;28;20048;-84
2022/06/04 06:41:25;;;;;;;15.30;13.13;;;;;;;;;;5091102;28;20012;-86
2022/06/04 06:43:51;;;;;;;19.55;13.85;;;;;;;;;;5090070;28;20387;-86
2022/06/04 06:46:22;;;;;;;17.20;13.00;;;;;;;;;;5081441;28;20494;-83
2022/06/04 06:48:50;;;;;;;16.70;12.73;;;;;;;;;;5090951;28;20034;-83
2022/06/04 06:51:20;;;;;;;16.52;13.35;;;;;;;;;;5087630;28;20024;-85
2022/06/04 06:53:46;;;;;;;17.80;14.05;;;;;;;;;;5092125;28;20020;-86
2022/06/04 06:56:14;;;;;;;16.10;13.75;;;;;;;;;;5086025;28;20043;-82
2022/06/04 06:58:40;;;;;;;21.27;12.73;;;;;;;;;;5083926;28;20571;-82
2022/06/04 07:01:07;;;;;;;21.35;13.48;;;;;;;;;;5085550;28;20016;-83
2022/06/04 07:03:34;;;;;;;20.40;13.82;;;;;;;;;;5088341;28;20101;-81
2022/06/04 07:06:00;;;;;;;17.25;13.60;;;;;;;;;;5090230;28;20039;-80
2022/06/04 07:08:25;;;;;;;16.52;12.57;;;;;;;;;;5090913;28;20023;-85
2022/06/04 07:10:51;;;;;;;17.80;13.25;;;;;;;;;;5089818;28;20150;-82
2022/06/04 07:13:16;;;;;;;15.65;11.63;;;;;;;;;;5092965;28;20020;-82
2022/06/04 07:15:43;;;;;;;18.77;12.00;;;;;;;;;;5089887;28;20479;-85
2022/06/04 07:18:13;;;;;;;15.45;11.50;;;;;;;;;;5087071;28;20016;-86
2022/06/04 07:20:39;;;;;;;;;;;;;;;;;;5089758;28;20486;-82
2022/06/04 07:23:04;;;;;;;12.00;10.38;;;;;;;;;;5085840;28;19912;-82
2022/06/04 07:25:30;;;;;;;11.45;9.40;;;;;;;;;;5087764;28;20046;-82
2022/06/04 07:27:55;;;;;;;11.65;9.82;;;;;;;;;;5087724;28;20063;-83
2022/06/04 07:30:21;;;;;;;14.07;8.45;;;;;;;;;;5089838;28;20044;-85
2022/06/04 07:32:46;;;;;;;14.02;8.93;;;;;;;;;;5084089;28;20532;-83
2022/06/04 07:35:12;;;;;;;10.43;7.70;;;;;;;;;;5090787;28;20038;-86
2022/06/04 07:37:37;;;;;;;10.55;8.82;;;;;;;;;;5089580;28;20059;-86
2022/06/04 07:40:04;;;;;;;14.48;8.35;;;;;;;;;;5089199;28;20036;-85
2022/06/04 07:42:29;;;;;;;11.23;7.38;;;;;;;;;;5088236;28;20036;-86
2022/06/04 07:44:56;;;;;;;15.77;7.25;;;;;;;;;;5087560;28;20430;-86
2022/06/04 07:47:21;;;;;;;10.02;7.18;;;;;;;;;;5090919;28;20032;-84
2022/06/04 07:49:47;;;;;;;11.63;7.07;;;;;;;;;;5087334;28;20077;-85
2022/06/04 07:52:12;;;;;;;9.38;6.40;;;;;;;;;;5090113;28;20024;-84
2022/06/04 07:54:39;;;;;;;8.45;6.00;;;;;;;;;;5088453;28;20028;-86
2022/06/04 07:57:05;;;;;;;9.25;6.40;;;;;;;;;;5084974;28;20115;-86
2022/06/04 07:59:42;;;;;;;9.90;5.88;;;;;;;;;;5089517;28;20103;-87
2022/06/04 08:02:09;;;;;;;6.93;5.82;;;;;;;;;;5088181;28;20020;-87
2022/06/04 08:04:35;;;;;;;11.60;9.27;;;;;;;;;;5088138;28;20040;-87
2022/06/04 08:07:01;;;;;;;7.57;5.40;;;;;;;;;;5088144;28;20032;-86
2022/06/04 08:09:27;;;;;;;6.90;5.55;;;;;;;;;;5088491;28;20016;-87
2022/06/04 08:11:52;;;;;;;9.35;5.40;;;;;;;;;;5088236;28;20030;-87
2022/06/04 08:14:23;;;;;;;8.48;5.25;;;;;;;;;;5090305;28;20112;-88
2022/06/04 08:16:52;;;;;;;6.75;5.32;;;;;;;;;;5085997;28;20031;-86
2022/06/04 08:19:19;;;;;;;7.10;4.90;;;;;;;;;;5088300;28;20474;-85
2022/06/04 08:21:45;;;;;;;8.15;4.70;;;;;;;;;;5090314;28;20440;-86
2022/06/04 08:24:13;;;;;;;9.73;5.55;;;;;;;;;;5089035;28;20089;-88
2022/06/04 08:26:41;;;;;;;7.30;5.60;;;;;;;;;;5091506;28;20051;-89
2022/06/04 08:29:07;;;;;;;7.90;5.77;;;;;;;;;;5090447;28;20442;-85
2022/06/04 08:31:33;;;;;;;8.57;6.13;;;;;;;;;;5081444;28;20024;-83
2022/06/04 08:33:59;;;;;;;9.20;5.35;;;;;;;;;;5089490;28;20024;-80
2022/06/04 08:36:25;;;;;;;11.50;5.32;;;;;;;;;;5089499;28;20024;-83
2022/06/04 08:38:51;;;;;;;10.65;5.80;;;;;;;;;;5088791;28;20027;-84
2022/06/04 08:41:38;;;;;;;11.43;5.88;;;;;;;;;;5088745;28;20028;-86
2022/06/04 08:44:26;;;;;;;10.00;6.63;;;;;;;;;;5066876;28;20430;-83
2022/06/04 08:46:57;;;;;;;43.22;18.40;;;;;;;;;;5089194;28;20039;-83
2022/06/04 08:49:42;;;;;;;54.75;24.08;;;;;;;;;;5090056;28;20099;-84
2022/06/04 08:52:21;;;;;;;172.15;48.95;;;;;;;;;;5094126;28;20460;-84
2022/06/04 08:57:41;;;;;;;42.05;17.42;;;;;;;;;;5091841;28;20105;-83
2022/06/04 09:00:19;;;;;;;24.75;13.50;;;;;;;;;;5089662;28;20028;-82
2022/06/04 09:02:59;;;;;;;90.68;35.90;;;;;;;;;;5091489;28;20457;-84
2022/06/04 09:05:52;;;;;;;28.92;15.65;;;;;;;;;;5089268;28;20028;-84
2022/06/04 09:08:27;;;;;;;54.35;25.52;;;;;;;;;;5090219;28;20681;-83
2022/06/04 09:10:57;;;;;;;9.50;5.85;;;;;;;;;;5087617;28;20024;-83
2022/06/04 09:13:35;;;;;;;10.25;7.10;;;;;;;;;;5092275;28;20051;-82
2022/06/04 09:16:28;;;;;;;9.98;6.30;;;;;;;;;;5091907;28;20352;-88
2022/06/04 09:19:02;;;;;;;11.95;6.35;;;;;;;;;;5091871;28;20107;-85
2022/06/04 09:21:35;;;;;;;8.40;6.80;;;;;;;;;;5092505;28;20020;-86
2022/06/04 09:24:01;;;;;;;7.80;5.18;;;;;;;;;;5091475;28;20123;-88
2022/06/04 09:26:40;;;;;;;6.53;5.15;;;;;;;;;;5091687;28;20127;-85
2022/06/04 09:29:22;;;;;;;;;;;;;;;;;;5091731;28;20047;-86
2022/06/04 09:32:09;;;;;;;8.10;5.00;;;;;;;;;;5091748;28;19916;-87
2022/06/04 09:34:38;;;;;;;8.27;5.53;;;;;;;;;;5090833;28;20064;-86
2022/06/04 09:37:06;;;;;;;7.63;5.55;;;;;;;;;;5091469;28;20035;-84
2022/06/04 09:39:36;;;;;;;6.82;4.97;;;;;;;;;;5091196;28;20123;-87
2022/06/04 09:42:23;;;;;;;6.57;4.78;;;;;;;;;;5086415;28;20036;-86
2022/06/04 09:45:05;;;;;;;7.38;5.93;;;;;;;;;;5091660;28;20024;-88
2022/06/04 09:47:40;;;;;;;8.70;5.97;;;;;;;;;;5091470;28;20476;-85
2022/06/04 09:50:24;;;;;;;8.65;5.65;;;;;;;;;;5094382;28;20035;-85
2022/06/04 09:53:09;;;;;;;11.50;5.35;;;;;;;;;;5093208;28;20023;-86
2022/06/04 09:55:35;;;;;;;10.90;5.93;;;;;;;;;;5092169;28;20059;-86
2022/06/04 09:58:18;;;;;;;8.00;5.60;;;;;;;;;;5088025;28;20332;-89
2022/06/04 10:01:04;;;;;;;9.38;6.00;;;;;;;;;;5087039;28;20031;-86
2022/06/04 10:03:39;;;;;;;8.70;5.70;;;;;;;;;;5091409;28;20487;-86
2022/06/04 10:06:27;;;;;;;8.43;5.40;;;;;;;;;;5093231;28;20024;-86
2022/06/04 10:12:07;;;;;;;7.05;5.00;;;;;;;;;;5092872;28;20077;-86
2022/06/04 10:14:38;;;;;;;7.30;5.88;;;;;;;;;;5093010;28;20119;-86
2022/06/04 10:17:51;;;;;;;;;;;;;;;;;;;;;
2022/06/04 10:21:17;;;;;;;;;;;;;;;;;;;;;
2022/06/04 11:09:21;;;;;;;8.10;6.35;;;;;;;;;;5049619;28;20116;-86
2022/06/04 11:11:52;;;;;;;6.82;6.13;;;;;;;;;;5051655;28;20060;-87
2022/06/04 11:14:53;;;;;;;11.40;6.78;;;;;;;;;;5051663;28;20082;-86
2022/06/04 11:17:23;;;;;;;7.68;6.30;;;;;;;;;;5055507;28;20375;-88
2022/06/04 11:20:04;;;;;;;10.48;7.00;;;;;;;;;;5050446;28;20025;-87
2022/06/04 11:22:39;;;;;;;10.57;7.07;;;;;;;;;;5049501;28;20021;-88
2022/06/04 11:25:15;;;;;;;11.50;7.25;;;;;;;;;;5048287;28;20025;-89
2022/06/04 11:27:48;;;;;;;10.82;7.40;;;;;;;;;;5077815;28;20029;-88
2022/06/04 11:30:16;;;;;;;9.52;7.28;;;;;;;;;;5048518;28;20104;-85
2022/06/04 11:33:26;;;;;;;10.38;6.68;;;;;;;;;;5071755;28;20483;-88
2022/06/04 11:36:07;;;;;;;8.10;7.20;;;;;;;;;;5089899;28;20089;-86
2022/06/04 11:38:53;;;;;;;12.40;7.25;;;;;;;;;;5088204;28;20395;-89
2022/06/04 11:41:41;;;;;;;11.65;7.53;;;;;;;;;;5088469;28;20024;-86
2022/06/04 11:44:32;;;;;;;9.27;6.53;;;;;;;;;;5088460;28;20081;-86
2022/06/04 11:47:20;;;;;;;8.57;6.80;;;;;;;;;;5086917;28;20020;-89
2022/06/04 11:50:06;;;;;;;10.18;7.28;;;;;;;;;;5082522;28;20053;-89
2022/06/04 11:52:36;;;;;;;9.85;7.43;;;;;;;;;;5086190;28;20464;-87
2022/06/04 11:55:25;;;;;;;10.57;7.45;;;;;;;;;;5086487;28;20087;-86
2022/06/04 11:58:12;;;;;;;10.88;7.85;;;;;;;;;;5088565;28;20699;-89
2022/06/04 12:00:41;;;;;;;11.70;9.35;;;;;;;;;;5089531;28;20047;-86
2022/06/04 12:03:42;;;;;;;12.02;8.13;;;;;;;;;;5089689;28;20028;-87
2022/06/04 12:06:21;;;;;;;12.57;8.20;;;;;;;;;;5077043;28;20113;-86
2022/06/04 12:08:56;;;;;;;9.23;8.05;;;;;;;;;;5088493;28;20172;-88
2022/06/04 12:11:40;;;;;;;12.35;7.95;;;;;;;;;;5088664;28;20032;-87
2022/06/04 12:14:24;;;;;;;9.23;7.18;;;;;;;;;;5086916;28;20020;-87
2022/06/04 12:17:29;;;;;;;12.65;7.70;;;;;;;;;;5090224;28;20032;-88
2022/06/04 12:25:43;;;;;;;12.45;8.77;;;;;;;;;;5090610;28;20794;-87
2022/06/04 12:28:24;;;;;;;7.95;7.05;;;;;;;;;;5088971;28;20133;-86
2022/06/04 12:30:50;;;;;;;10.73;7.88;;;;;;;;;;5087735;28;20091;-85
2022/06/04 12:33:22;;;;;;;10.45;7.25;;;;;;;;;;5089668;28;20152;-87
2022/06/04 12:35:59;;;;;;;12.07;8.55;;;;;;;;;;5089603;28;20076;-86
2022/06/04 12:38:25;;;;;;;9.00;8.10;;;;;;;;;;5090192;28;20028;-87
2022/06/04 12:40:51;;;;;;;8.73;7.80;;;;;;;;;;5090803;28;20024;-86
2022/06/04 12:43:23;;;;;;;8.48;7.38;;;;;;;;;;5087507;28;20039;-87
2022/06/04 12:46:04;;;;;;;13.60;9.32;;;;;;;;;;5090453;28;20121;-88
2022/06/04 12:48:32;;;;;;;10.73;8.30;;;;;;;;;;5088822;28;20024;-88
2022/06/04 12:51:21;;;;;;;10.32;8.07;;;;;;;;;;5089449;28;20112;-86
2022/06/04 12:53:59;;;;;;;10.27;8.55;;;;;;;;;;5087730;28;20463;-87
2022/06/04 12:56:32;;;;;;;14.30;7.70;;;;;;;;;;5088813;28;20103;-87
2022/06/04 12:59:00;;;;;;;11.38;7.90;;;;;;;;;;5087166;28;20028;-87
2022/06/04 13:01:37;;;;;;;10.47;8.73;;;;;;;;;;5089701;28;20549;-87
2022/06/04 13:04:20;;;;;;;10.55;8.18;;;;;;;;;;5090072;28;20017;-87
2022/06/04 13:07:01;;;;;;;9.80;7.97;;;;;;;;;;5087815;28;20043;-89
2022/06/04 13:10:17;;;;;;;9.82;8.77;;;;;;;;;;5086335;28;20096;-89
2022/06/04 13:13:09;;;;;;;12.43;9.13;;;;;;;;;;5017955;28;20033;-86
2022/06/04 13:15:43;;;;;;;9.75;8.85;;;;;;;;;;5047117;28;20391;-88
2022/06/04 13:18:19;;;;;;;9.73;8.68;;;;;;;;;;5085210;28;20108;-87
2022/06/04 13:21:11;;;;;;;10.57;9.10;;;;;;;;;;5085049;28;20047;-87
2022/06/04 13:23:50;;;;;;;9.68;8.75;;;;;;;;;;5078920;28;20483;-84
2022/06/04 13:26:15;;;;;;;;;;;;;;;;;;5081293;28;20379;-85
2022/06/04 13:28:44;;;;;;;10.52;8.30;;;;;;;;;;5082468;28;19912;-83
2022/06/04 13:31:19;;;;;;;9.75;7.75;;;;;;;;;;5079570;28;20142;-85
2022/06/04 13:33:44;;;;;;;10.02;8.25;;;;;;;;;;5080192;28;20498;-85
2022/06/04 13:36:12;;;;;;;11.10;7.60;;;;;;;;;;5082886;28;20024;-85
2022/06/04 13:38:43;;;;;;;8.75;7.55;;;;;;;;;;5084424;28;20023;-86
2022/06/04 13:44:26;;;;;;;9.40;8.43;;;;;;;;;;5085917;28;20042;-86
2022/06/04 13:46:52;;;;;;;13.27;8.55;;;;;;;;;;5088151;28;20044;-86
2022/06/04 13:49:26;;;;;;;13.15;8.18;;;;;;;;;;5090334;28;20031;-85
2022/06/04 13:51:59;;;;;;;8.90;8.00;;;;;;;;;;5092086;28;20016;-81
2022/06/04 13:54:29;;;;;;;9.20;8.32;;;;;;;;;;5086296;28;20029;-86
2022/06/04 13:56:57;;;;;;;8.68;7.78;;;;;;;;;;5084245;28;20124;-82
2022/06/04 13:59:40;;;;;;;11.77;8.10;;;;;;;;;;5089596;28;20016;-82
2022/06/04 14:02:13;;;;;;;9.38;8.48;;;;;;;;;;5087830;28;20024;-83
2022/06/04 14:07:35;;;;;;;7.80;6.88;;;;;;;;;;5086629;28;20036;-82
2022/06/04 14:10:02;;;;;;;14.70;7.57;;;;;;;;;;5086329;28;20048;-84
2022/06/04 14:12:47;;;;;;;9.80;6.35;;;;;;;;;;5089188;28;20028;-84
2022/06/04 14:15:33;;;;;;;9.00;6.82;;;;;;;;;;5081860;28;20122;-83
2022/06/04 14:18:14;;;;;;;15.60;13.93;;;;;;;;;;5082737;28;20517;-82
2022/06/04 14:21:02;;;;;;;13.85;12.25;;;;;;;;;;5082047;28;20024;-82
2022/06/04 14:23:42;;;;;;;7.85;7.05;;;;;;;;;;5070646;28;20086;-81
2022/06/04 14:26:10;;;;;;;11.02;6.38;;;;;;;;;;5090518;28;20073;-80
2022/06/04 14:29:02;;;;;;;8.75;6.18;;;;;;;;;;5087499;28;20028;-87
2022/06/04 14:31:38;;;;;;;8.90;6.20;;;;;;;;;;5090606;28;20024;-88
2022/06/04 14:34:04;;;;;;;7.20;6.07;;;;;;;;;;5086186;28;20027;-87
2022/06/04 14:36:32;;;;;;;7.40;5.60;;;;;;;;;;5086219;28;20418;-87
2022/06/04 14:39:00;;;;;;;9.97;6.20;;;;;;;;;;5087133;28;20031;-88
2022/06/04 14:41:44;;;;;;;13.25;7.30;;;;;;;;;;5092150;28;20283;-86
2022/06/04 14:44:24;;;;;;;10.02;7.30;;;;;;;;;;5087435;28;20054;-87
2022/06/04 14:47:04;;;;;;;8.48;7.03;;;;;;;;;;5088211;28;20031;-85
2022/06/04 14:49:59;;;;;;;9.10;7.20;;;;;;;;;;5083995;28;20024;-85
2022/06/04 14:52:37;;;;;;;8.90;7.15;;;;;;;;;;5089262;28;20115;-86
2022/06/04 14:55:33;;;;;;;7.32;6.57;;;;;;;;;;5089525;28;20365;-86
2022/06/04 14:58:18;;;;;;;8.68;7.10;;;;;;;;;;5091418;28;20032;-85
2022/06/04 15:01:02;;;;;;;9.68;6.43;;;;;;;;;;5089605;28;20028;-86
2022/06/04 15:03:57;;;;;;;7.45;6.22;;;;;;;;;;5087250;28;20039;-87
2022/06/04 15:06:38;;;;;;;8.38;6.40;;;;;;;;;;5085341;28;20024;-87
2022/06/04 15:09:37;;;;;;;7.50;6.20;;;;;;;;;;5090455;28;20035;-84
2022/06/04 15:12:24;;;;;;;;;;;;;;;;;;5088646;28;20354;-86
2022/06/04 15:15:08;;;;;;;9.55;6.55;;;;;;;;;;5090380;28;19959;-84
2022/06/04 15:17:48;;;;;;;9.07;6.57;;;;;;;;;;5091199;28;20111;-85
2022/06/04 15:20:42;;;;;;;41.60;37.25;;;;;;;;;;5090994;28;20028;-85
2022/06/04 15:23:38;;;;;;;165.98;141.18;;;;;;;;;;5090516;28;20357;-85
2022/06/04 15:26:14;;;;;;;13.40;10.30;;;;;;;;;;5087830;28;20047;-84
2022/06/04 15:34:50;;;;;;;7.15;5.65;;;;;;;;;;5092614;28;20399;-84
2022/06/04 15:37:31;;;;;;;8.35;6.80;;;;;;;;;;5092252;28;20031;-85
2022/06/04 15:40:08;;;;;;;7.68;5.75;;;;;;;;;;5091408;28;20032;-86
2022/06/04 15:42:55;;;;;;;6.18;4.88;;;;;;;;;;5090882;28;20036;-86
2022/06/04 15:45:31;;;;;;;6.18;5.20;;;;;;;;;;5088979;28;20452;-84
2022/06/04 15:48:02;;;;;;;8.15;5.88;;;;;;;;;;5092642;28;20023;-85
2022/06/04 15:56:30;;;;;;;8.02;5.88;;;;;;;;;;5090172;28;20489;-87
2022/06/04 15:59:06;;;;;;;8.73;4.88;;;;;;;;;;5089998;28;20077;-85
2022/06/04 16:01:32;;;;;;;8.35;5.18;;;;;;;;;;5091402;28;20040;-84
2022/06/04 16:04:09;;;;;;;6.05;4.78;;;;;;;;;;5090344;28;20157;-85
2022/06/04 16:06:42;;;;;;;6.20;5.60;;;;;;;;;;5088539;28;20031;-86
2022/06/04 16:09:17;;;;;;;7.97;5.60;;;;;;;;;;5087463;28;20027;-84
2022/06/04 16:12:10;;;;;;;7.60;5.53;;;;;;;;;;5090406;28;20112;-84
2022/06/04 16:15:03;;;;;;;5.25;3.97;;;;;;;;;;5090972;28;20066;-84
2022/06/04 16:17:51;;;;;;;13.00;6.90;;;;;;;;;;5091738;28;20093;-85
2022/06/04 16:20:41;;;;;;;8.13;5.75;;;;;;;;;;5088502;28;20024;-84
2022/06/04 16:23:20;;;;;;;9.90;6.15;;;;;;;;;;5083665;28;20028;-83
2022/06/04 16:25:53;;;;;;;10.65;6.93;;;;;;;;;;5091027;28;20019;-84
2022/06/04 16:28:21;;;;;;;9.30;6.68;;;;;;;;;;5090295;28;20028;-83
2022/06/04 16:30:50;;;;;;;7.83;6.57;;;;;;;;;;5089596;28;20039;-88
2022/06/04 16:33:22;;;;;;;7.50;6.70;;;;;;;;;;5090971;28;20062;-85
2022/06/04 16:35:47;;;;;;;9.70;7.55;;;;;;;;;;5090062;28;20078;-85
2022/06/04 16:43:29;;;;;;;10.55;6.80;;;;;;;;;;5091107;28;20031;-85